createdAt,value
2018-12-05T00:00:29.012Z,1000.24
2018-12-05T00:01:29.004Z,1000.2
2018-12-05T00:02:28.997Z,1000.18
2018-12-05T00:03:28.992Z,1000.18
2018-12-05T00:04:28.982Z,1000.21
2018-12-05T00:05:28.974Z,1000.18
2018-12-05T00:06:28.968Z,1000.19
2018-12-05T00:07:29.010Z,1000.18
2018-12-05T00:08:28.951Z,1000.17
2018-12-05T00:09:28.945Z,1000.2
2018-12-05T00:10:28.937Z,1000.2
2018-12-05T00:11:28.930Z,1000.22
2018-12-05T00:12:28.922Z,1000.24
2018-12-05T00:13:28.915Z,1000.21
2018-12-05T00:14:28.910Z,1000.19
2018-12-05T00:15:28.899Z,1000.24
2018-12-05T00:16:28.920Z,1000.26
2018-12-05T00:17:28.882Z,1000.31
2018-12-05T00:18:28.877Z,1000.33
2018-12-05T00:19:28.876Z,1000.32
2018-12-05T00:20:28.862Z,1000.33
2018-12-05T00:21:28.854Z,1000.35
2018-12-05T00:22:28.846Z,1000.36
2018-12-05T00:23:28.844Z,1000.36
2018-12-05T00:24:28.835Z,1000.4
2018-12-05T00:25:28.826Z,1000.35
2018-12-05T00:26:28.820Z,1000.39
2018-12-05T00:27:28.810Z,1000.34
2018-12-05T00:28:28.801Z,1000.3
2018-12-05T00:29:28.799Z,1000.26
2018-12-05T00:30:28.792Z,1000.22
2018-12-05T00:31:28.782Z,1000.21
2018-12-05T00:32:28.771Z,1000.22
2018-12-05T00:33:28.765Z,1000.21
2018-12-05T00:34:28.775Z,1000.24
2018-12-05T00:35:28.749Z,1000.27
2018-12-05T00:36:28.747Z,1000.19
2018-12-05T00:37:28.743Z,1000.15
2018-12-05T00:38:28.726Z,1000.16
2018-12-05T00:39:28.721Z,1000.14
2018-12-05T00:40:28.714Z,1000.13
2018-12-05T00:41:28.707Z,1000.2
2018-12-05T00:42:28.698Z,1000.21
2018-12-05T00:43:28.694Z,1000.23
2018-12-05T00:44:28.680Z,1000.22
2018-12-05T00:45:28.671Z,1000.24
2018-12-05T00:46:28.665Z,1000.23
2018-12-05T00:47:28.658Z,1000.23
2018-12-05T00:48:28.705Z,1000.21
2018-12-05T00:49:28.644Z,1000.26
2018-12-05T00:50:28.636Z,1000.24
2018-12-05T00:51:28.631Z,1000.22
2018-12-05T00:52:28.619Z,1000.21
2018-12-05T00:53:28.613Z,1000.26
2018-12-05T00:54:28.606Z,1000.23
2018-12-05T00:55:28.597Z,1000.22
2018-12-05T00:56:28.590Z,1000.24
2018-12-05T00:57:28.590Z,1000.29
2018-12-05T00:58:28.594Z,1000.27
2018-12-05T00:59:28.574Z,1000.24
2018-12-05T01:00:28.564Z,1000.26
2018-12-05T01:01:28.554Z,1000.26
2018-12-05T01:02:28.549Z,1000.31
2018-12-05T01:03:28.539Z,1000.32
2018-12-05T01:04:28.530Z,1000.33
2018-12-05T01:05:28.531Z,1000.36
2018-12-05T01:06:28.516Z,1000.42
2018-12-05T01:07:28.515Z,1000.42
2018-12-05T01:08:28.509Z,1000.4
2018-12-05T01:09:28.500Z,1000.39
2018-12-05T01:10:28.484Z,1000.42
2018-12-05T01:11:28.488Z,1000.4
2018-12-05T01:12:28.472Z,1000.43
2018-12-05T01:13:28.465Z,1000.44
2018-12-05T01:14:28.466Z,1000.44
2018-12-05T01:15:28.457Z,1000.43
2018-12-05T01:16:28.444Z,1000.46
2018-12-05T01:17:28.435Z,1000.42
2018-12-05T01:18:28.427Z,1000.43
2018-12-05T01:19:28.422Z,1000.36
2018-12-05T01:20:28.415Z,1000.38
2018-12-05T01:21:28.411Z,1000.38
2018-12-05T01:22:28.399Z,1000.38
2018-12-05T01:23:28.392Z,1000.38
2018-12-05T01:24:28.386Z,1000.37
2018-12-05T01:25:28.380Z,1000.37
2018-12-05T01:26:28.369Z,1000.31
2018-12-05T01:27:28.362Z,1000.35
2018-12-05T01:28:28.361Z,1000.45
2018-12-05T01:29:28.358Z,1000.41
2018-12-05T01:30:28.341Z,1000.38
2018-12-05T01:31:28.330Z,1000.39
2018-12-05T01:32:28.323Z,1000.38
2018-12-05T01:33:28.318Z,1000.42
2018-12-05T01:34:28.310Z,1000.43
2018-12-05T01:35:28.312Z,1000.44
2018-12-05T01:36:28.294Z,1000.43
2018-12-05T01:37:28.289Z,1000.4
2018-12-05T01:38:28.280Z,1000.38
2018-12-05T01:39:28.271Z,1000.3
2018-12-05T01:40:28.267Z,1000.28
2018-12-05T01:41:28.259Z,1000.29
2018-12-05T01:42:28.253Z,1000.35
2018-12-05T01:43:28.247Z,1000.27
2018-12-05T01:44:28.246Z,1000.29
2018-12-05T01:45:28.231Z,1000.24
2018-12-05T01:46:28.222Z,1000.17
2018-12-05T01:47:28.213Z,1000.16
2018-12-05T01:48:28.213Z,1000.16
2018-12-05T01:49:28.199Z,1000.11
2018-12-05T01:50:28.198Z,1000.16
2018-12-05T01:51:28.186Z,1000.13
2018-12-05T01:52:28.177Z,1000.08
2018-12-05T01:53:28.169Z,1000.08
2018-12-05T01:54:28.191Z,1000.08
2018-12-05T01:55:28.161Z,1000.1
2018-12-05T01:56:28.149Z,1000.14
2018-12-05T01:57:28.146Z,1000.11
2018-12-05T01:58:28.133Z,1000.08
2018-12-05T01:59:28.141Z,1000.07
2018-12-05T02:00:28.124Z,1000.09
2018-12-05T02:01:28.113Z,999.99
2018-12-05T02:02:28.106Z,1000.06
2018-12-05T02:03:28.100Z,1000.06
2018-12-05T02:04:28.092Z,1000.08
2018-12-05T02:05:28.086Z,1000.08
2018-12-05T02:06:28.078Z,1000.07
2018-12-05T02:07:28.068Z,1000.06
2018-12-05T02:08:28.066Z,1000.04
2018-12-05T02:09:28.067Z,1000.04
2018-12-05T02:10:28.067Z,999.98
2018-12-05T02:11:28.042Z,999.97
2018-12-05T02:12:28.033Z,999.98
2018-12-05T02:13:28.025Z,999.97
2018-12-05T02:14:28.018Z,1000.02
2018-12-05T02:15:28.013Z,999.96
2018-12-05T02:16:28.011Z,1000
2018-12-05T02:17:28.006Z,999.96
2018-12-05T02:18:27.987Z,999.95
2018-12-05T02:19:27.982Z,999.98
2018-12-05T02:20:27.972Z,999.96
2018-12-05T02:21:27.966Z,999.94
2018-12-05T02:22:27.961Z,999.95
2018-12-05T02:23:27.952Z,999.93
2018-12-05T02:24:27.945Z,999.89
2018-12-05T02:25:27.938Z,999.91
2018-12-05T02:26:27.930Z,999.92
2018-12-05T02:27:27.921Z,999.94
2018-12-05T02:28:27.921Z,999.93
2018-12-05T02:29:27.906Z,999.96
2018-12-05T02:30:27.900Z,999.94
2018-12-05T02:31:27.892Z,999.94
2018-12-05T02:32:27.913Z,999.89
2018-12-05T02:33:27.884Z,999.9
2018-12-05T02:34:27.871Z,999.9
2018-12-05T02:35:27.870Z,999.89
2018-12-05T02:36:27.858Z,999.93
2018-12-05T02:37:27.854Z,999.9
2018-12-05T02:38:27.848Z,999.94
2018-12-05T02:39:27.835Z,999.84
2018-12-05T02:40:27.825Z,999.85
2018-12-05T02:41:27.816Z,999.76
2018-12-05T02:42:27.810Z,999.69
2018-12-05T02:43:27.814Z,999.67
2018-12-05T02:44:27.806Z,999.58
2018-12-05T02:45:27.789Z,999.61
2018-12-05T02:46:27.781Z,999.57
2018-12-05T02:47:27.777Z,999.53
2018-12-05T02:48:27.766Z,999.5
2018-12-05T02:49:27.758Z,999.54
2018-12-05T02:50:27.747Z,999.61
2018-12-05T02:51:27.749Z,999.62
2018-12-05T02:52:27.738Z,999.65
2018-12-05T02:53:27.729Z,999.65
2018-12-05T02:54:27.736Z,999.65
2018-12-05T02:55:27.719Z,999.71
2018-12-05T02:56:27.703Z,999.71
2018-12-05T02:57:27.694Z,999.73
2018-12-05T02:58:27.687Z,999.71
2018-12-05T02:59:27.682Z,999.62
2018-12-05T03:00:27.679Z,999.62
2018-12-05T03:01:27.664Z,999.61
2018-12-05T03:02:27.655Z,999.62
2018-12-05T03:03:27.648Z,999.61
2018-12-05T03:04:27.650Z,999.65
2018-12-05T03:05:27.634Z,999.67
2018-12-05T03:06:27.625Z,999.66
2018-12-05T03:07:27.636Z,999.68
2018-12-05T03:08:27.610Z,999.7
2018-12-05T03:09:27.601Z,999.69
2018-12-05T03:10:27.593Z,999.69
2018-12-05T03:11:27.585Z,999.74
2018-12-05T03:12:27.577Z,999.68
2018-12-05T03:13:27.569Z,999.66
2018-12-05T03:14:27.560Z,999.7
2018-12-05T03:15:27.715Z,999.7
2018-12-05T03:16:27.545Z,999.76
2018-12-05T03:17:27.537Z,999.74
2018-12-05T03:18:27.541Z,999.74
2018-12-05T03:19:27.523Z,999.8
2018-12-05T03:20:27.539Z,999.8
2018-12-05T03:21:27.505Z,999.82
2018-12-05T03:22:27.496Z,999.85
2018-12-05T03:23:27.487Z,999.9
2018-12-05T03:24:27.481Z,999.88
2018-12-05T03:25:27.473Z,999.89
2018-12-05T03:26:27.469Z,999.95
2018-12-05T03:27:27.457Z,999.96
2018-12-05T03:28:27.448Z,999.97
2018-12-05T03:29:27.446Z,999.98
2018-12-05T03:30:27.432Z,999.98
2018-12-05T03:31:27.423Z,999.99
2018-12-05T03:32:27.426Z,999.97
2018-12-05T03:33:27.409Z,999.93
2018-12-05T03:34:27.401Z,999.93
2018-12-05T03:35:27.392Z,999.96
2018-12-05T03:36:27.384Z,999.91
2018-12-05T03:37:27.375Z,999.99
2018-12-05T03:38:27.366Z,999.99
2018-12-05T03:39:27.369Z,999.96
2018-12-05T03:40:27.350Z,999.99
2018-12-05T03:41:27.341Z,1000.05
2018-12-05T03:42:27.335Z,1000.07
2018-12-05T03:43:27.334Z,1000.09
2018-12-05T03:44:27.319Z,1000.11
2018-12-05T03:45:27.314Z,1000.1
2018-12-05T03:46:27.303Z,1000.11
2018-12-05T03:47:27.292Z,1000.11
2018-12-05T03:48:27.287Z,1000.15
2018-12-05T03:49:27.278Z,1000.17
2018-12-05T03:50:27.270Z,1000.2
2018-12-05T03:51:27.266Z,1000.18
2018-12-05T03:52:27.260Z,1000.18
2018-12-05T03:53:27.264Z,1000.09
2018-12-05T03:54:27.237Z,1000.13
2018-12-05T03:55:27.230Z,1000.08
2018-12-05T03:56:27.223Z,1000.13
2018-12-05T03:57:27.216Z,1000.1
2018-12-05T03:58:27.201Z,1000.09
2018-12-05T03:59:27.197Z,1000.05
2018-12-05T04:00:27.189Z,1000.1
2018-12-05T04:01:27.180Z,1000.09
2018-12-05T04:02:27.172Z,1000.05
2018-12-05T04:03:27.165Z,1000.08
2018-12-05T04:04:27.169Z,1000.05
2018-12-05T04:05:27.152Z,1000.01
2018-12-05T04:06:27.141Z,1000.01
2018-12-05T04:07:27.135Z,999.97
2018-12-05T04:08:27.126Z,999.96
2018-12-05T04:09:27.120Z,999.95
2018-12-05T04:10:27.109Z,999.91
2018-12-05T04:11:27.105Z,999.85
2018-12-05T04:12:27.096Z,999.84
2018-12-05T04:13:27.099Z,999.84
2018-12-05T04:14:27.087Z,999.84
2018-12-05T04:15:27.077Z,999.81
2018-12-05T04:16:27.064Z,999.75
2018-12-05T04:17:27.057Z,999.78
2018-12-05T04:18:27.049Z,999.76
2018-12-05T04:19:27.046Z,999.71
2018-12-05T04:20:27.033Z,999.72
2018-12-05T04:21:27.032Z,999.72
2018-12-05T04:22:27.018Z,999.7
2018-12-05T04:23:27.012Z,999.66
2018-12-05T04:24:27.012Z,999.65
2018-12-05T04:25:27.013Z,999.63
2018-12-05T04:26:26.998Z,999.66
2018-12-05T04:27:26.989Z,999.63
2018-12-05T04:28:26.995Z,999.6
2018-12-05T04:29:26.967Z,999.67
2018-12-05T04:30:26.966Z,999.69
2018-12-05T04:31:26.948Z,999.67
2018-12-05T04:32:26.943Z,999.73
2018-12-05T04:33:26.934Z,999.77
2018-12-05T04:34:26.929Z,999.8
2018-12-05T04:35:26.921Z,999.78
2018-12-05T04:36:26.918Z,999.71
2018-12-05T04:37:26.917Z,999.65
2018-12-05T04:38:26.895Z,999.64
2018-12-05T04:39:26.899Z,999.58
2018-12-05T04:40:26.879Z,999.58
2018-12-05T04:41:26.874Z,999.56
2018-12-05T04:42:26.864Z,999.56
2018-12-05T04:43:26.863Z,999.59
2018-12-05T04:44:26.862Z,999.58
2018-12-05T04:45:26.841Z,999.61
2018-12-05T04:46:26.834Z,999.59
2018-12-05T04:47:26.826Z,999.62
2018-12-05T04:48:26.822Z,999.63
2018-12-05T04:49:26.817Z,999.59
2018-12-05T04:50:26.808Z,999.62
2018-12-05T04:51:26.798Z,999.61
2018-12-05T04:52:26.795Z,999.63
2018-12-05T04:53:26.781Z,999.65
2018-12-05T04:54:26.774Z,999.68
2018-12-05T04:55:26.766Z,999.69
2018-12-05T04:56:26.761Z,999.66
2018-12-05T04:57:26.751Z,999.71
2018-12-05T04:58:26.744Z,999.71
2018-12-05T04:59:26.739Z,999.71
2018-12-05T05:00:26.731Z,999.69
2018-12-05T05:01:26.720Z,999.65
2018-12-05T05:02:26.715Z,999.64
2018-12-05T05:03:26.721Z,999.65
2018-12-05T05:04:26.708Z,999.66
2018-12-05T05:05:26.688Z,999.66
2018-12-05T05:06:26.680Z,999.67
2018-12-05T05:07:26.681Z,999.65
2018-12-05T05:08:26.669Z,999.66
2018-12-05T05:09:26.661Z,999.67
2018-12-05T05:10:26.653Z,999.68
2018-12-05T05:11:26.655Z,999.69
2018-12-05T05:12:26.639Z,999.68
2018-12-05T05:13:26.631Z,999.68
2018-12-05T05:14:26.625Z,999.69
2018-12-05T05:15:26.615Z,999.73
2018-12-05T05:16:26.610Z,999.66
2018-12-05T05:17:26.603Z,999.67
2018-12-05T05:18:26.590Z,999.68
2018-12-05T05:19:26.590Z,999.76
2018-12-05T05:20:26.577Z,999.75
2018-12-05T05:21:26.584Z,999.73
2018-12-05T05:22:26.582Z,999.75
2018-12-05T05:23:26.554Z,999.71
2018-12-05T05:24:26.561Z,999.79
2018-12-05T05:25:26.541Z,999.76
2018-12-05T05:26:26.544Z,999.74
2018-12-05T05:27:26.554Z,999.75
2018-12-05T05:28:26.532Z,999.74
2018-12-05T05:29:26.530Z,999.68
2018-12-05T05:30:26.531Z,999.7
2018-12-05T05:31:26.517Z,999.7
2018-12-05T05:32:26.500Z,999.72
2018-12-05T05:33:26.503Z,999.72
2018-12-05T05:34:26.496Z,999.79
2018-12-05T05:35:26.477Z,999.8
2018-12-05T05:36:26.462Z,999.82
2018-12-05T05:37:26.465Z,999.91
2018-12-05T05:38:26.462Z,999.91
2018-12-05T05:39:26.442Z,999.91
2018-12-05T05:40:26.445Z,999.93
2018-12-05T05:41:26.449Z,999.95
2018-12-05T05:42:26.422Z,999.97
2018-12-05T05:43:26.404Z,999.92
2018-12-05T05:44:26.417Z,999.95
2018-12-05T05:45:26.389Z,999.9
2018-12-05T05:46:26.387Z,999.91
2018-12-05T05:47:26.379Z,999.91
2018-12-05T05:48:26.373Z,999.86
2018-12-05T05:49:26.361Z,999.87
2018-12-05T05:50:26.360Z,999.88
2018-12-05T05:51:26.347Z,999.88
2018-12-05T05:52:26.332Z,999.86
2018-12-05T05:53:26.328Z,999.83
2018-12-05T05:54:26.336Z,999.83
2018-12-05T05:55:26.314Z,999.87
2018-12-05T05:56:26.305Z,999.84
2018-12-05T05:57:26.314Z,999.86
2018-12-05T05:58:26.294Z,999.82
2018-12-05T05:59:26.290Z,999.86
2018-12-05T06:00:26.275Z,999.91
2018-12-05T06:01:26.275Z,999.9
2018-12-05T06:02:26.257Z,999.96
2018-12-05T06:03:26.257Z,999.94
2018-12-05T06:04:26.247Z,999.93
2018-12-05T06:05:26.262Z,999.92
2018-12-05T06:06:26.243Z,999.89
2018-12-05T06:07:26.220Z,999.8
2018-12-05T06:08:26.209Z,999.81
2018-12-05T06:09:26.201Z,999.77
2018-12-05T06:10:26.193Z,999.82
2018-12-05T06:11:26.187Z,999.82
2018-12-05T06:12:26.189Z,999.83
2018-12-05T06:13:26.189Z,999.85
2018-12-05T06:14:26.164Z,999.86
2018-12-05T06:15:26.167Z,999.84
2018-12-05T06:16:26.153Z,999.88
2018-12-05T06:17:26.141Z,999.83
2018-12-05T06:18:26.143Z,999.87
2018-12-05T06:19:26.125Z,999.84
2018-12-05T06:20:26.121Z,999.81
2018-12-05T06:21:27.179Z,999.83
2018-12-05T06:22:26.185Z,999.81
2018-12-05T06:23:26.098Z,999.81
2018-12-05T06:24:26.090Z,999.81
2018-12-05T06:25:26.087Z,999.76
2018-12-05T06:26:26.076Z,999.82
2018-12-05T06:27:26.069Z,999.81
2018-12-05T06:28:26.062Z,999.86
2018-12-05T06:29:26.056Z,999.88
2018-12-05T06:30:26.051Z,999.87
2018-12-05T06:31:26.035Z,999.86
2018-12-05T06:32:26.028Z,999.89
2018-12-05T06:33:26.022Z,999.9
2018-12-05T06:34:26.021Z,999.9
2018-12-05T06:35:26.014Z,999.9
2018-12-05T06:36:26.001Z,999.88
2018-12-05T06:37:26.004Z,999.89
2018-12-05T06:38:25.991Z,999.93
2018-12-05T06:39:25.978Z,999.91
2018-12-05T06:40:25.969Z,999.95
2018-12-05T06:41:25.962Z,999.98
2018-12-05T06:42:25.955Z,999.96
2018-12-05T06:43:25.946Z,999.96
2018-12-05T06:44:25.941Z,999.94
2018-12-05T06:45:25.934Z,999.97
2018-12-05T06:46:25.924Z,1000
2018-12-05T06:47:25.918Z,1000
2018-12-05T06:48:25.920Z,1000.05
2018-12-05T06:49:25.904Z,1000.06
2018-12-05T06:50:25.896Z,1000.01
2018-12-05T06:51:25.888Z,999.97
2018-12-05T06:52:25.920Z,1000.04
2018-12-05T06:53:25.874Z,999.97
2018-12-05T06:54:25.868Z,999.99
2018-12-05T06:55:25.860Z,999.98
2018-12-05T06:56:25.859Z,999.95
2018-12-05T06:57:25.844Z,999.98
2018-12-05T06:58:25.837Z,1000
2018-12-05T06:59:25.843Z,999.99
2018-12-05T07:00:25.829Z,1000.01
2018-12-05T07:01:25.816Z,999.96
2018-12-05T07:02:25.805Z,999.95
2018-12-05T07:03:25.802Z,999.94
2018-12-05T07:04:25.793Z,999.95
2018-12-05T07:05:25.786Z,999.98
2018-12-05T07:06:25.778Z,999.96
2018-12-05T07:07:25.771Z,999.94
2018-12-05T07:08:25.763Z,999.92
2018-12-05T07:09:25.758Z,999.95
2018-12-05T07:10:25.748Z,999.99
2018-12-05T07:11:25.741Z,1000.02
2018-12-05T07:12:25.732Z,1000
2018-12-05T07:13:25.727Z,1000.01
2018-12-05T07:14:25.719Z,1000.02
2018-12-05T07:15:25.711Z,999.98
2018-12-05T07:16:25.706Z,999.98
2018-12-05T07:17:25.708Z,999.98
2018-12-05T07:18:25.704Z,999.93
2018-12-05T07:19:25.705Z,999.97
2018-12-05T07:20:25.674Z,999.96
2018-12-05T07:21:25.669Z,999.96
2018-12-05T07:22:25.661Z,999.94
2018-12-05T07:23:25.659Z,999.9
2018-12-05T07:24:25.654Z,999.96
2018-12-05T07:25:25.649Z,1000
2018-12-05T07:26:25.640Z,1000.01
2018-12-05T07:27:25.624Z,1000.04
2018-12-05T07:28:25.619Z,1000.05
2018-12-05T07:29:25.609Z,1000.06
2018-12-05T07:30:29.394Z,1000.03
2018-12-05T07:31:25.595Z,1000.1
2018-12-05T07:32:25.590Z,1000.12
2018-12-05T07:33:25.584Z,1000.11
2018-12-05T07:34:25.572Z,1000.14
2018-12-05T07:35:25.568Z,1000.09
2018-12-05T07:36:25.560Z,1000.05
2018-12-05T07:37:25.551Z,1000
2018-12-05T07:38:25.544Z,999.93
2018-12-05T07:39:25.545Z,999.92
2018-12-05T07:40:25.535Z,999.94
2018-12-05T07:41:25.526Z,999.91
2018-12-05T07:42:25.512Z,999.9
2018-12-05T07:43:25.508Z,999.88
2018-12-05T07:44:25.504Z,999.88
2018-12-05T07:45:25.533Z,999.89
2018-12-05T07:46:25.492Z,999.92
2018-12-05T07:47:25.478Z,999.94
2018-12-05T07:48:25.474Z,999.97
2018-12-05T07:49:25.465Z,999.91
2018-12-05T07:50:25.459Z,999.93
2018-12-05T07:51:25.452Z,999.9
2018-12-05T07:52:25.442Z,999.98
2018-12-05T07:53:25.436Z,999.98
2018-12-05T07:54:25.436Z,999.96
2018-12-05T07:55:25.425Z,1000.02
2018-12-05T07:56:25.415Z,999.95
2018-12-05T07:57:25.408Z,999.99
2018-12-05T07:58:25.403Z,999.98
2018-12-05T07:59:25.394Z,999.97
2018-12-05T08:00:25.478Z,999.96
2018-12-05T08:01:25.382Z,999.99
2018-12-05T08:02:25.376Z,999.96
2018-12-05T08:03:25.371Z,999.94
2018-12-05T08:04:25.360Z,999.92
2018-12-05T08:05:25.352Z,999.92
2018-12-05T08:06:25.347Z,999.92
2018-12-05T08:07:25.353Z,999.97
2018-12-05T08:08:25.338Z,1000.02
2018-12-05T08:09:25.332Z,1000.01
2018-12-05T08:10:25.317Z,1000.03
2018-12-05T08:11:25.318Z,1000
2018-12-05T08:12:25.306Z,999.96
2018-12-05T08:13:25.297Z,999.98
2018-12-05T08:14:25.292Z,999.95
2018-12-05T08:15:25.284Z,1000.01
2018-12-05T08:16:25.277Z,1000.04
2018-12-05T08:17:25.273Z,1000.01
2018-12-05T08:18:25.263Z,1000
2018-12-05T08:19:25.260Z,1000.04
2018-12-05T08:20:25.252Z,1000
2018-12-05T08:21:25.244Z,1000
2018-12-05T08:22:25.243Z,1000.03
2018-12-05T08:23:25.235Z,1000.05
2018-12-05T08:24:25.227Z,1000.06
2018-12-05T08:25:25.222Z,1000.07
2018-12-05T08:26:25.214Z,1000.08
2018-12-05T08:27:25.213Z,1000.07
2018-12-05T08:28:25.204Z,1000.06
2018-12-05T08:29:25.193Z,1000.03
2018-12-05T08:30:25.188Z,1000.1
2018-12-05T08:31:25.191Z,1000.09
2018-12-05T08:32:25.173Z,1000.05
2018-12-05T08:33:25.171Z,1000.03
2018-12-05T08:34:25.162Z,1000.02
2018-12-05T08:35:25.156Z,1000.05
2018-12-05T08:36:25.144Z,1000.02
2018-12-05T08:37:25.139Z,1000.03
2018-12-05T08:38:25.134Z,1000
2018-12-05T08:39:25.133Z,1000.02
2018-12-05T08:40:25.123Z,1000.02
2018-12-05T08:41:25.116Z,1000.01
2018-12-05T08:42:25.106Z,1000.06
2018-12-05T08:43:25.100Z,1000.02
2018-12-05T08:44:25.096Z,1000.05
2018-12-05T08:45:25.089Z,1000.09
2018-12-05T08:46:25.085Z,1000.09
2018-12-05T08:47:25.084Z,1000.08
2018-12-05T08:48:25.079Z,1000.12
2018-12-05T08:49:25.064Z,1000.13
2018-12-05T08:50:25.081Z,1000.17
2018-12-05T08:51:25.053Z,1000.16
2018-12-05T08:52:25.050Z,1000.11
2018-12-05T08:53:25.040Z,1000.12
2018-12-05T08:54:25.037Z,1000.16
2018-12-05T08:55:25.024Z,1000.14
2018-12-05T08:56:25.019Z,1000.18
2018-12-05T08:57:25.030Z,1000.17
2018-12-05T08:58:25.003Z,1000.2
2018-12-05T08:59:24.998Z,1000.23
2018-12-05T09:00:24.994Z,1000.21
2018-12-05T09:01:24.987Z,1000.18
2018-12-05T09:02:24.980Z,1000.19
2018-12-05T09:03:24.972Z,1000.17
2018-12-05T09:04:24.969Z,1000.22
2018-12-05T09:05:24.961Z,1000.2
2018-12-05T09:06:24.957Z,1000.23
2018-12-05T09:07:24.967Z,1000.25
2018-12-05T09:08:24.953Z,1000.24
2018-12-05T09:09:24.937Z,1000.2
2018-12-05T09:10:24.933Z,1000.21
2018-12-05T09:11:25.015Z,1000.25
2018-12-05T09:12:24.919Z,1000.26
2018-12-05T09:13:24.910Z,1000.25
2018-12-05T09:14:28.694Z,1000.3
2018-12-05T09:15:24.901Z,1000.27
2018-12-05T09:16:24.895Z,1000.25
2018-12-05T09:17:24.896Z,1000.29
2018-12-05T09:18:24.884Z,1000.29
2018-12-05T09:19:24.878Z,1000.3
2018-12-05T09:20:24.871Z,1000.27
2018-12-05T09:21:24.869Z,1000.29
2018-12-05T09:22:24.859Z,1000.24
2018-12-05T09:23:24.855Z,1000.21
2018-12-05T09:24:24.848Z,1000.21
2018-12-05T09:25:24.842Z,1000.16
2018-12-05T09:26:24.840Z,1000.13
2018-12-05T09:27:24.880Z,1000.12
2018-12-05T09:28:24.831Z,1000.14
2018-12-05T09:29:24.823Z,1000.15
2018-12-05T09:30:24.815Z,1000.14
2018-12-05T09:31:24.812Z,1000.14
2018-12-05T09:32:24.813Z,1000.08
2018-12-05T09:33:24.799Z,1000.12
2018-12-05T09:34:24.794Z,1000.04
2018-12-05T09:35:24.791Z,1000.07
2018-12-05T09:36:24.785Z,1000.04
2018-12-05T09:37:24.780Z,1000.05
2018-12-05T09:38:24.773Z,1000.06
2018-12-05T09:39:24.768Z,1000.04
2018-12-05T09:40:24.762Z,1000.05
2018-12-05T09:41:24.755Z,1000.01
2018-12-05T09:42:24.755Z,999.99
2018-12-05T09:43:24.749Z,999.99
2018-12-05T09:44:24.740Z,1000.02
2018-12-05T09:45:24.735Z,1000.03
2018-12-05T09:46:24.733Z,999.99
2018-12-05T09:47:24.725Z,999.96
2018-12-05T09:48:24.720Z,999.95
2018-12-05T09:49:24.717Z,999.89
2018-12-05T09:50:24.713Z,999.93
2018-12-05T09:51:24.705Z,999.91
2018-12-05T09:52:24.705Z,999.94
2018-12-05T09:53:24.697Z,999.96
2018-12-05T09:54:24.698Z,999.96
2018-12-05T09:55:24.695Z,999.97
2018-12-05T09:56:24.685Z,999.96
2018-12-05T09:57:24.675Z,999.98
2018-12-05T09:58:24.684Z,999.98
2018-12-05T09:59:24.670Z,1000
2018-12-05T10:00:24.672Z,1000.02
2018-12-05T10:01:24.655Z,1000.02
2018-12-05T10:02:24.655Z,999.99
2018-12-05T10:03:24.645Z,1000.03
2018-12-05T10:04:24.641Z,1000.04
2018-12-05T10:05:24.635Z,1000.04
2018-12-05T10:06:24.631Z,1000.05
2018-12-05T10:07:24.633Z,1000.02
2018-12-05T10:08:24.622Z,1000
2018-12-05T10:09:24.620Z,999.99
2018-12-05T10:10:24.618Z,999.95
2018-12-05T10:11:24.616Z,999.88
2018-12-05T10:12:24.601Z,999.92
2018-12-05T10:13:24.597Z,999.91
2018-12-05T10:14:24.667Z,999.88
2018-12-05T10:15:24.587Z,999.85
2018-12-05T10:16:24.581Z,999.84
2018-12-05T10:17:24.576Z,999.82
2018-12-05T10:18:24.574Z,999.8
2018-12-05T10:19:24.568Z,999.74
2018-12-05T10:20:24.564Z,999.72
2018-12-05T10:21:24.557Z,999.7
2018-12-05T10:22:24.553Z,999.7
2018-12-05T10:23:24.549Z,999.69
2018-12-05T10:24:24.544Z,999.66
2018-12-05T10:25:24.554Z,999.62
2018-12-05T10:26:24.533Z,999.56
2018-12-05T10:27:24.527Z,999.6
2018-12-05T10:28:24.522Z,999.6
2018-12-05T10:29:24.517Z,999.54
2018-12-05T10:30:24.511Z,999.52
2018-12-05T10:31:24.508Z,999.51
2018-12-05T10:32:24.504Z,999.53
2018-12-05T10:33:24.500Z,999.48
2018-12-05T10:34:24.492Z,999.49
2018-12-05T10:35:24.501Z,999.51
2018-12-05T10:36:24.489Z,999.47
2018-12-05T10:37:24.522Z,999.47
2018-12-05T10:38:24.476Z,999.41
2018-12-05T10:39:24.476Z,999.4
2018-12-05T10:40:24.463Z,999.42
2018-12-05T10:41:24.461Z,999.37
2018-12-05T10:42:24.452Z,999.4
2018-12-05T10:43:24.447Z,999.29
2018-12-05T10:44:24.441Z,999.26
2018-12-05T10:45:24.435Z,999.26
2018-12-05T10:46:24.446Z,999.25
2018-12-05T10:47:24.429Z,999.2
2018-12-05T10:48:24.441Z,999.21
2018-12-05T10:49:24.424Z,999.21
2018-12-05T10:50:24.441Z,999.18
2018-12-05T10:51:24.409Z,999.22
2018-12-05T10:52:24.401Z,999.21
2018-12-05T10:53:25.207Z,999.25
2018-12-05T10:54:24.393Z,999.22
2018-12-05T10:55:24.382Z,999.18
2018-12-05T10:56:24.377Z,999.15
2018-12-05T10:57:24.373Z,999.17
2018-12-05T10:58:24.368Z,999.18
2018-12-05T10:59:24.364Z,999.15
2018-12-05T11:00:24.357Z,999.19
2018-12-05T11:01:24.354Z,999.15
2018-12-05T11:02:24.347Z,999.13
2018-12-05T11:03:24.343Z,999.14
2018-12-05T11:04:24.340Z,999.15
2018-12-05T11:05:24.335Z,999.03
2018-12-05T11:06:24.329Z,999.04
2018-12-05T11:07:24.327Z,998.98
2018-12-05T11:08:24.320Z,998.92
2018-12-05T11:09:24.315Z,998.92
2018-12-05T11:10:24.308Z,998.96
2018-12-05T11:11:24.305Z,998.94
2018-12-05T11:12:24.302Z,998.97
2018-12-05T11:13:24.306Z,998.93
2018-12-05T11:14:24.292Z,998.95
2018-12-05T11:15:24.286Z,998.97
2018-12-05T11:16:24.283Z,999
2018-12-05T11:17:24.276Z,999.02
2018-12-05T11:18:24.271Z,999
2018-12-05T11:19:24.266Z,999
2018-12-05T11:20:24.263Z,998.96
2018-12-05T11:21:24.263Z,998.97
2018-12-05T11:22:24.263Z,998.99
2018-12-05T11:23:24.258Z,999.01
2018-12-05T11:24:24.263Z,999.04
2018-12-05T11:25:24.262Z,998.98
2018-12-05T11:26:24.243Z,998.97
2018-12-05T11:27:24.237Z,998.95
2018-12-05T11:28:24.234Z,998.93
2018-12-05T11:29:24.232Z,998.93
2018-12-05T11:30:24.221Z,998.94
2018-12-05T11:31:24.218Z,998.92
2018-12-05T11:32:24.213Z,998.94
2018-12-05T11:33:24.218Z,998.95
2018-12-05T11:34:24.424Z,998.92
2018-12-05T11:35:24.210Z,998.88
2018-12-05T11:36:24.213Z,998.85
2018-12-05T11:37:24.216Z,998.85
2018-12-05T11:38:24.197Z,998.88
2018-12-05T11:39:24.180Z,998.85
2018-12-05T11:40:24.177Z,998.86
2018-12-05T11:41:24.175Z,998.86
2018-12-05T11:42:24.167Z,998.86
2018-12-05T11:43:24.165Z,998.88
2018-12-05T11:44:24.158Z,998.89
2018-12-05T11:45:24.156Z,998.97
2018-12-05T11:46:24.151Z,998.96
2018-12-05T11:47:24.145Z,998.93
2018-12-05T11:48:24.142Z,998.9
2018-12-05T11:49:24.140Z,998.87
2018-12-05T11:50:24.134Z,998.92
2018-12-05T11:51:24.138Z,998.87
2018-12-05T11:52:24.136Z,998.85
2018-12-05T11:53:24.121Z,998.83
2018-12-05T11:54:24.118Z,998.71
2018-12-05T11:55:24.112Z,998.7
2018-12-05T11:56:24.112Z,998.68
2018-12-05T11:57:24.105Z,998.67
2018-12-05T11:58:24.104Z,998.63
2018-12-05T11:59:24.105Z,998.63
2018-12-05T12:00:24.103Z,998.55
2018-12-05T12:01:24.089Z,998.5
2018-12-05T12:02:24.097Z,998.52
2018-12-05T12:03:24.083Z,998.51
2018-12-05T12:04:24.081Z,998.51
2018-12-05T12:05:24.774Z,998.51
2018-12-05T12:06:24.077Z,998.54
2018-12-05T12:07:24.069Z,998.51
2018-12-05T12:08:24.064Z,998.51
2018-12-05T12:09:24.059Z,998.47
2018-12-05T12:10:24.055Z,998.51
2018-12-05T12:11:24.049Z,998.5
2018-12-05T12:12:24.047Z,998.5
2018-12-05T12:13:24.043Z,998.46
2018-12-05T12:14:24.039Z,998.4
2018-12-05T12:15:24.036Z,998.41
2018-12-05T12:16:24.030Z,998.39
2018-12-05T12:17:24.035Z,998.38
2018-12-05T12:18:24.036Z,998.33
2018-12-05T12:19:24.029Z,998.32
2018-12-05T12:20:24.017Z,998.32
2018-12-05T12:21:24.014Z,998.29
2018-12-05T12:22:24.009Z,998.26
2018-12-05T12:23:24.005Z,998.23